Yarmouth, ME

12:06 AM EST on December 10, 2016 (GMT -0500)
Yankee Marina | | Change Station

Elev 7 ft 43.80 °N, 70.17 °W | Updated 12 seconds ago

Clear
Clear
25.2 °F
Feels Like 19 °F
N
4.9
Wind Variable Wind from West
Gusts 7.4 mph

Today
High -- | Low -- °F
--% Chance of Precip.
Yesterday
High -- | Low -- °F
Precip. -- in
Pressure 30.12 in
Visibility 10.0 miles
Clouds Clear
Windchill 19 °F
Dew Point 9 °F
Humidity 49%
Rainfall 0.00 in
Snow Depth Not available.
7:04 AM 4:03 PM
Waxing Gibbous, 80% visible
METAR KPWM 100451Z 29011KT 10SM CLR M06/M15 A3011 RMK AO2 SLP197 T10561150 400061061
Pressure 30.12 in
Visibility 10.0 miles
Clouds Clear
Windchill 19 °F
Dew Point 9 °F
Humidity 49%
Rainfall 0.00 in
Snow Depth Not available.
7:04 AM 4:03 PM
Waxing Gibbous, 80% visible
METAR KPWM 100451Z 29011KT 10SM CLR M06/M15 A3011 RMK AO2 SLP197 T10561150 400061061

10-Day Weather Forecast

Almanac

Astronomy

Dec. 10, 2016 Rise Set
Actual Time
Civil Twilight
Nautical Twilight
Astronomical Twilight
Moon
Length of Visible Light
Length of Day
Tomorrow will be .
, % of the Moon is Illuminated

Today's Extremes

State Highs State Lows

Community

WunderPhotos

Upload Photos

1,956,529 photos uploaded!

WunderBlog® & News

Nearby

Air Quality

  Air Quality AQ Index Pollutant
Not available.

Snow Depth

Station Depth Elevation

Earthquake Activity

City Distance Mag. Time & Date
Minimum magnitude displayed is 2.5.

Coastal Water Temperatures

Place Temperature

Stations

Nearby Weather Stations

Station Location Temp. Windchill Dew Point Humidity Wind Precip. Elev Updated Type
                   

Watches & Warnings

There are currently no watches in effect.